sensor_id;sensor_type;location;lat;lon;timestamp;temperature;humidity
31639;DHT22;18248;51.522;7.020;2023-07-30T00:01:18;18.20;99.90
31639;DHT22;18248;51.522;7.020;2023-07-30T00:04:17;18.20;99.90
31639;DHT22;18248;51.522;7.020;2023-07-30T00:07:15;18.20;99.90
31639;DHT22;18248;51.522;7.020;2023-07-30T00:10:14;18.10;99.90
31639;DHT22;18248;51.522;7.020;2023-07-30T00:13:13;18.10;99.90
31639;DHT22;18248;51.522;7.020;2023-07-30T00:16:11;18.10;99.90
31639;DHT22;18248;51.522;7.020;2023-07-30T00:19:10;18.00;99.90
31639;DHT22;18248;51.522;7.020;2023-07-30T00:22:09;18.00;99.90
31639;DHT22;18248;51.522;7.020;2023-07-30T00:25:07;17.90;99.90
31639;DHT22;18248;51.522;7.020;2023-07-30T00:28:06;17.90;99.90
31639;DHT22;18248;51.522;7.020;2023-07-30T00:31:05;17.80;99.90
31639;DHT22;18248;51.522;7.020;2023-07-30T00:34:03;17.80;99.90
31639;DHT22;18248;51.522;7.020;2023-07-30T00:37:02;17.70;99.90
31639;DHT22;18248;51.522;7.020;2023-07-30T00:40:02;17.70;99.90
31639;DHT22;18248;51.522;7.020;2023-07-30T00:43:01;17.70;99.90
31639;DHT22;18248;51.522;7.020;2023-07-30T00:45:59;17.60;99.90
31639;DHT22;18248;51.522;7.020;2023-07-30T00:48:58;17.60;99.90
31639;DHT22;18248;51.522;7.020;2023-07-30T00:51:57;17.50;99.90
31639;DHT22;18248;51.522;7.020;2023-07-30T00:54:57;17.50;99.90
31639;DHT22;18248;51.522;7.020;2023-07-30T00:57:57;17.40;99.90
31639;DHT22;18248;51.522;7.020;2023-07-30T01:00:56;17.40;99.90
31639;DHT22;18248;51.522;7.020;2023-07-30T01:03:55;17.40;99.90
31639;DHT22;18248;51.522;7.020;2023-07-30T01:06:53;17.40;99.90
31639;DHT22;18248;51.522;7.020;2023-07-30T01:09:52;17.30;99.90
31639;DHT22;18248;51.522;7.020;2023-07-30T01:12:51;17.30;99.90
31639;DHT22;18248;51.522;7.020;2023-07-30T01:15:51;17.30;99.90
31639;DHT22;18248;51.522;7.020;2023-07-30T01:18:49;17.30;99.90
31639;DHT22;18248;51.522;7.020;2023-07-30T01:21:48;17.20;99.90
31639;DHT22;18248;51.522;7.020;2023-07-30T01:24:47;17.10;99.90
31639;DHT22;18248;51.522;7.020;2023-07-30T01:27:49;17.10;99.90
31639;DHT22;18248;51.522;7.020;2023-07-30T01:30:49;17.00;99.90
31639;DHT22;18248;51.522;7.020;2023-07-30T01:33:50;17.00;99.90
31639;DHT22;18248;51.522;7.020;2023-07-30T01:36:51;17.00;99.90
31639;DHT22;18248;51.522;7.020;2023-07-30T01:39:51;16.90;99.90
31639;DHT22;18248;51.522;7.020;2023-07-30T01:42:50;16.90;99.90
31639;DHT22;18248;51.522;7.020;2023-07-30T01:45:48;16.90;99.90
31639;DHT22;18248;51.522;7.020;2023-07-30T01:48:47;16.90;99.90
31639;DHT22;18248;51.522;7.020;2023-07-30T01:51:45;16.90;99.90
31639;DHT22;18248;51.522;7.020;2023-07-30T01:54:44;16.80;99.90
31639;DHT22;18248;51.522;7.020;2023-07-30T01:57:43;16.80;99.90
31639;DHT22;18248;51.522;7.020;2023-07-30T02:00:41;16.80;99.90
31639;DHT22;18248;51.522;7.020;2023-07-30T02:03:40;16.80;99.90
31639;DHT22;18248;51.522;7.020;2023-07-30T02:06:38;16.70;99.90
31639;DHT22;18248;51.522;7.020;2023-07-30T02:09:37;16.70;99.90
31639;DHT22;18248;51.522;7.020;2023-07-30T02:12:35;16.60;99.90
31639;DHT22;18248;51.522;7.020;2023-07-30T02:15:34;16.70;99.90
31639;DHT22;18248;51.522;7.020;2023-07-30T02:18:32;16.70;99.90
31639;DHT22;18248;51.522;7.020;2023-07-30T02:21:31;16.60;99.90
31639;DHT22;18248;51.522;7.020;2023-07-30T02:24:30;16.60;99.90
31639;DHT22;18248;51.522;7.020;2023-07-30T02:27:29;16.60;99.90
31639;DHT22;18248;51.522;7.020;2023-07-30T02:30:28;16.60;99.90
31639;DHT22;18248;51.522;7.020;2023-07-30T02:33:26;16.60;99.90
31639;DHT22;18248;51.522;7.020;2023-07-30T02:36:25;16.50;99.90
31639;DHT22;18248;51.522;7.020;2023-07-30T02:39:23;16.50;99.90
31639;DHT22;18248;51.522;7.020;2023-07-30T02:42:22;16.50;99.90
31639;DHT22;18248;51.522;7.020;2023-07-30T02:45:21;16.50;99.90
31639;DHT22;18248;51.522;7.020;2023-07-30T02:48:19;16.40;99.90
31639;DHT22;18248;51.522;7.020;2023-07-30T02:51:18;16.40;99.90
31639;DHT22;18248;51.522;7.020;2023-07-30T02:54:16;16.40;99.90
31639;DHT22;18248;51.522;7.020;2023-07-30T02:57:15;16.40;99.90
31639;DHT22;18248;51.522;7.020;2023-07-30T03:00:13;16.40;99.90
31639;DHT22;18248;51.522;7.020;2023-07-30T03:03:12;16.40;99.90
31639;DHT22;18248;51.522;7.020;2023-07-30T03:06:11;16.30;99.90
31639;DHT22;18248;51.522;7.020;2023-07-30T03:09:09;16.30;99.90
31639;DHT22;18248;51.522;7.020;2023-07-30T03:12:08;16.30;99.90
31639;DHT22;18248;51.522;7.020;2023-07-30T03:15:07;16.30;99.90
31639;DHT22;18248;51.522;7.020;2023-07-30T03:18:05;16.20;99.90
31639;DHT22;18248;51.522;7.020;2023-07-30T03:21:04;16.20;99.90
31639;DHT22;18248;51.522;7.020;2023-07-30T03:24:03;16.20;99.90
31639;DHT22;18248;51.522;7.020;2023-07-30T03:27:01;16.10;99.90
31639;DHT22;18248;51.522;7.020;2023-07-30T03:30:00;16.10;99.90
31639;DHT22;18248;51.522;7.020;2023-07-30T03:32:58;16.10;99.90
31639;DHT22;18248;51.522;7.020;2023-07-30T03:35:57;16.00;99.90
31639;DHT22;18248;51.522;7.020;2023-07-30T03:38:56;16.00;99.90
31639;DHT22;18248;51.522;7.020;2023-07-30T03:41:55;16.00;99.90
31639;DHT22;18248;51.522;7.020;2023-07-30T03:44:54;16.00;99.90
31639;DHT22;18248;51.522;7.020;2023-07-30T03:47:52;16.00;99.90
31639;DHT22;18248;51.522;7.020;2023-07-30T03:50:53;16.00;99.90
31639;DHT22;18248;51.522;7.020;2023-07-30T03:53:51;15.90;99.90
31639;DHT22;18248;51.522;7.020;2023-07-30T03:56:50;16.00;99.90
31639;DHT22;18248;51.522;7.020;2023-07-30T03:59:49;15.90;99.90
31639;DHT22;18248;51.522;7.020;2023-07-30T04:02:47;15.90;99.90
31639;DHT22;18248;51.522;7.020;2023-07-30T04:05:46;15.90;99.90
31639;DHT22;18248;51.522;7.020;2023-07-30T04:08:45;15.90;99.90
31639;DHT22;18248;51.522;7.020;2023-07-30T04:11:43;15.90;99.90
31639;DHT22;18248;51.522;7.020;2023-07-30T04:14:42;15.90;99.90
31639;DHT22;18248;51.522;7.020;2023-07-30T04:17:40;15.90;99.90
31639;DHT22;18248;51.522;7.020;2023-07-30T04:20:39;15.90;99.90
31639;DHT22;18248;51.522;7.020;2023-07-30T04:23:38;15.90;99.90
31639;DHT22;18248;51.522;7.020;2023-07-30T04:26:36;15.90;99.90
31639;DHT22;18248;51.522;7.020;2023-07-30T04:29:35;16.00;99.90
31639;DHT22;18248;51.522;7.020;2023-07-30T04:32:33;16.10;99.90
31639;DHT22;18248;51.522;7.020;2023-07-30T04:35:32;16.10;99.90
31639;DHT22;18248;51.522;7.020;2023-07-30T04:38:31;16.20;99.90
31639;DHT22;18248;51.522;7.020;2023-07-30T04:41:29;16.20;99.90
31639;DHT22;18248;51.522;7.020;2023-07-30T04:44:28;16.30;99.90
31639;DHT22;18248;51.522;7.020;2023-07-30T04:47:26;16.30;99.90
31639;DHT22;18248;51.522;7.020;2023-07-30T04:50:25;16.40;99.90
31639;DHT22;18248;51.522;7.020;2023-07-30T04:53:23;16.40;99.90
31639;DHT22;18248;51.522;7.020;2023-07-30T04:56:22;16.50;99.90
31639;DHT22;18248;51.522;7.020;2023-07-30T04:59:20;16.50;99.90
31639;DHT22;18248;51.522;7.020;2023-07-30T05:02:19;16.60;99.90
31639;DHT22;18248;51.522;7.020;2023-07-30T05:05:17;16.70;99.90
31639;DHT22;18248;51.522;7.020;2023-07-30T05:08:16;16.70;99.90
31639;DHT22;18248;51.522;7.020;2023-07-30T05:11:14;16.80;99.90
31639;DHT22;18248;51.522;7.020;2023-07-30T05:14:13;16.80;99.90
31639;DHT22;18248;51.522;7.020;2023-07-30T05:17:12;16.80;99.90
31639;DHT22;18248;51.522;7.020;2023-07-30T05:20:11;16.90;99.90
31639;DHT22;18248;51.522;7.020;2023-07-30T05:23:09;16.90;99.90
31639;DHT22;18248;51.522;7.020;2023-07-30T05:26:08;17.00;99.90
31639;DHT22;18248;51.522;7.020;2023-07-30T05:29:06;17.00;99.90
31639;DHT22;18248;51.522;7.020;2023-07-30T05:32:05;17.00;99.90
31639;DHT22;18248;51.522;7.020;2023-07-30T05:35:04;17.10;99.90
31639;DHT22;18248;51.522;7.020;2023-07-30T05:38:05;17.10;99.90
31639;DHT22;18248;51.522;7.020;2023-07-30T05:41:04;17.10;99.90
31639;DHT22;18248;51.522;7.020;2023-07-30T05:44:02;17.10;99.90
31639;DHT22;18248;51.522;7.020;2023-07-30T05:47:01;17.10;99.90
31639;DHT22;18248;51.522;7.020;2023-07-30T05:49:59;17.10;99.90
31639;DHT22;18248;51.522;7.020;2023-07-30T05:52:58;17.20;99.90
31639;DHT22;18248;51.522;7.020;2023-07-30T05:55:56;17.20;99.90
31639;DHT22;18248;51.522;7.020;2023-07-30T05:58:55;17.30;99.90
31639;DHT22;18248;51.522;7.020;2023-07-30T06:01:56;17.20;99.90
31639;DHT22;18248;51.522;7.020;2023-07-30T06:04:56;17.20;99.90
31639;DHT22;18248;51.522;7.020;2023-07-30T06:07:54;17.20;99.90
31639;DHT22;18248;51.522;7.020;2023-07-30T06:10:53;17.30;99.90
31639;DHT22;18248;51.522;7.020;2023-07-30T06:13:51;17.30;99.90
31639;DHT22;18248;51.522;7.020;2023-07-30T06:16:51;17.30;99.90
31639;DHT22;18248;51.522;7.020;2023-07-30T06:19:49;17.30;99.90
31639;DHT22;18248;51.522;7.020;2023-07-30T06:22:48;17.30;99.90
31639;DHT22;18248;51.522;7.020;2023-07-30T06:25:46;17.40;99.90
31639;DHT22;18248;51.522;7.020;2023-07-30T06:28:45;17.40;99.90
31639;DHT22;18248;51.522;7.020;2023-07-30T06:31:44;17.40;99.90
31639;DHT22;18248;51.522;7.020;2023-07-30T06:34:42;17.40;99.90
31639;DHT22;18248;51.522;7.020;2023-07-30T06:37:41;17.40;99.90
31639;DHT22;18248;51.522;7.020;2023-07-30T06:40:39;17.40;99.90
31639;DHT22;18248;51.522;7.020;2023-07-30T06:43:38;17.40;99.90
31639;DHT22;18248;51.522;7.020;2023-07-30T06:46:37;17.40;99.90
31639;DHT22;18248;51.522;7.020;2023-07-30T06:49:36;17.30;99.90
31639;DHT22;18248;51.522;7.020;2023-07-30T06:52:35;17.40;99.90
31639;DHT22;18248;51.522;7.020;2023-07-30T06:55:34;17.40;99.90
31639;DHT22;18248;51.522;7.020;2023-07-30T06:58:33;17.40;99.90
31639;DHT22;18248;51.522;7.020;2023-07-30T07:01:31;17.40;99.90
31639;DHT22;18248;51.522;7.020;2023-07-30T07:04:30;17.40;99.90
31639;DHT22;18248;51.522;7.020;2023-07-30T07:07:28;17.40;99.90
31639;DHT22;18248;51.522;7.020;2023-07-30T07:10:27;17.50;99.90
31639;DHT22;18248;51.522;7.020;2023-07-30T07:13:25;17.50;99.90
31639;DHT22;18248;51.522;7.020;2023-07-30T07:16:24;17.50;99.90
31639;DHT22;18248;51.522;7.020;2023-07-30T07:19:22;17.50;99.90
31639;DHT22;18248;51.522;7.020;2023-07-30T07:22:21;17.60;99.90
31639;DHT22;18248;51.522;7.020;2023-07-30T07:25:20;17.60;99.90
31639;DHT22;18248;51.522;7.020;2023-07-30T07:28:19;17.60;99.90
31639;DHT22;18248;51.522;7.020;2023-07-30T07:31:17;17.60;99.90
31639;DHT22;18248;51.522;7.020;2023-07-30T07:34:16;17.60;99.90
31639;DHT22;18248;51.522;7.020;2023-07-30T07:37:15;17.60;99.90
31639;DHT22;18248;51.522;7.020;2023-07-30T07:40:15;17.60;99.90
31639;DHT22;18248;51.522;7.020;2023-07-30T07:43:13;17.70;99.90
31639;DHT22;18248;51.522;7.020;2023-07-30T07:46:13;17.80;99.90
31639;DHT22;18248;51.522;7.020;2023-07-30T07:49:12;17.90;99.90
31639;DHT22;18248;51.522;7.020;2023-07-30T07:52:12;18.00;99.90
31639;DHT22;18248;51.522;7.020;2023-07-30T07:55:10;18.10;99.90
31639;DHT22;18248;51.522;7.020;2023-07-30T07:58:09;18.10;99.90
31639;DHT22;18248;51.522;7.020;2023-07-30T08:01:07;18.10;99.90
31639;DHT22;18248;51.522;7.020;2023-07-30T08:04:06;18.10;99.90
31639;DHT22;18248;51.522;7.020;2023-07-30T08:07:05;18.10;99.90
31639;DHT22;18248;51.522;7.020;2023-07-30T08:10:04;18.10;99.90
31639;DHT22;18248;51.522;7.020;2023-07-30T08:13:03;18.10;99.90
31639;DHT22;18248;51.522;7.020;2023-07-30T08:16:01;18.20;99.90
31639;DHT22;18248;51.522;7.020;2023-07-30T08:19:00;18.20;99.90
31639;DHT22;18248;51.522;7.020;2023-07-30T08:22:02;18.40;99.90
31639;DHT22;18248;51.522;7.020;2023-07-30T08:25:01;18.40;99.90
31639;DHT22;18248;51.522;7.020;2023-07-30T08:28:00;18.40;99.90
31639;DHT22;18248;51.522;7.020;2023-07-30T08:31:02;18.40;99.90
31639;DHT22;18248;51.522;7.020;2023-07-30T08:34:03;18.40;99.90
31639;DHT22;18248;51.522;7.020;2023-07-30T08:37:01;18.50;99.90
31639;DHT22;18248;51.522;7.020;2023-07-30T08:40:00;18.60;99.90
31639;DHT22;18248;51.522;7.020;2023-07-30T08:42:59;18.60;99.90
31639;DHT22;18248;51.522;7.020;2023-07-30T08:45:57;18.70;99.90
31639;DHT22;18248;51.522;7.020;2023-07-30T08:49:05;18.70;99.90
31639;DHT22;18248;51.522;7.020;2023-07-30T08:52:03;18.70;99.90
31639;DHT22;18248;51.522;7.020;2023-07-30T08:55:06;18.90;99.90
31639;DHT22;18248;51.522;7.020;2023-07-30T08:58:05;18.90;99.90
31639;DHT22;18248;51.522;7.020;2023-07-30T09:01:09;18.90;99.90
31639;DHT22;18248;51.522;7.020;2023-07-30T09:04:08;18.90;99.90
31639;DHT22;18248;51.522;7.020;2023-07-30T09:07:12;19.00;99.90
31639;DHT22;18248;51.522;7.020;2023-07-30T09:10:11;19.00;99.90
31639;DHT22;18248;51.522;7.020;2023-07-30T09:13:10;19.00;99.90
31639;DHT22;18248;51.522;7.020;2023-07-30T09:16:13;19.10;99.90
31639;DHT22;18248;51.522;7.020;2023-07-30T09:19:16;19.50;99.90
31639;DHT22;18248;51.522;7.020;2023-07-30T09:22:25;20.00;99.90
31639;DHT22;18248;51.522;7.020;2023-07-30T09:25:25;20.30;99.90
31639;DHT22;18248;51.522;7.020;2023-07-30T09:28:30;20.40;99.90
31639;DHT22;18248;51.522;7.020;2023-07-30T09:31:29;20.50;99.90
31639;DHT22;18248;51.522;7.020;2023-07-30T09:34:28;20.60;99.90
31639;DHT22;18248;51.522;7.020;2023-07-30T09:37:29;20.90;99.90
31639;DHT22;18248;51.522;7.020;2023-07-30T09:40:32;21.20;99.90
31639;DHT22;18248;51.522;7.020;2023-07-30T09:43:35;21.50;99.90
31639;DHT22;18248;51.522;7.020;2023-07-30T09:46:42;21.80;99.90
31639;DHT22;18248;51.522;7.020;2023-07-30T09:49:41;21.90;99.90
31639;DHT22;18248;51.522;7.020;2023-07-30T09:52:41;21.80;99.90
31639;DHT22;18248;51.522;7.020;2023-07-30T09:55:41;21.90;99.90
31639;DHT22;18248;51.522;7.020;2023-07-30T09:58:39;21.80;99.90
31639;DHT22;18248;51.522;7.020;2023-07-30T10:01:45;21.90;99.90
31639;DHT22;18248;51.522;7.020;2023-07-30T10:04:45;21.90;99.90
31639;DHT22;18248;51.522;7.020;2023-07-30T10:08:07;21.90;99.90
31639;DHT22;18248;51.522;7.020;2023-07-30T10:11:08;22.10;99.90
31639;DHT22;18248;51.522;7.020;2023-07-30T10:14:08;22.40;99.90
31639;DHT22;18248;51.522;7.020;2023-07-30T10:17:10;22.40;99.90
31639;DHT22;18248;51.522;7.020;2023-07-30T10:20:38;22.40;99.90
31639;DHT22;18248;51.522;7.020;2023-07-30T10:23:50;22.50;99.90
31639;DHT22;18248;51.522;7.020;2023-07-30T10:26:56;22.60;99.90
31639;DHT22;18248;51.522;7.020;2023-07-30T10:30:16;22.50;99.90
31639;DHT22;18248;51.522;7.020;2023-07-30T10:33:15;22.40;99.90
31639;DHT22;18248;51.522;7.020;2023-07-30T10:36:16;22.30;99.90
31639;DHT22;18248;51.522;7.020;2023-07-30T10:39:15;22.10;99.90
31639;DHT22;18248;51.522;7.020;2023-07-30T10:42:14;22.10;99.90
31639;DHT22;18248;51.522;7.020;2023-07-30T10:45:13;22.40;99.90
31639;DHT22;18248;51.522;7.020;2023-07-30T10:48:12;22.30;99.90
31639;DHT22;18248;51.522;7.020;2023-07-30T10:51:13;22.20;99.90
31639;DHT22;18248;51.522;7.020;2023-07-30T10:54:12;22.30;99.90
31639;DHT22;18248;51.522;7.020;2023-07-30T10:57:11;22.40;99.90
31639;DHT22;18248;51.522;7.020;2023-07-30T11:00:11;22.60;99.90
31639;DHT22;18248;51.522;7.020;2023-07-30T11:03:10;23.10;99.90
31639;DHT22;18248;51.522;7.020;2023-07-30T11:06:08;23.40;99.90
31639;DHT22;18248;51.522;7.020;2023-07-30T11:09:21;23.60;99.90
31639;DHT22;18248;51.522;7.020;2023-07-30T11:12:19;23.50;99.90
31639;DHT22;18248;51.522;7.020;2023-07-30T11:15:20;23.30;99.90
31639;DHT22;18248;51.522;7.020;2023-07-30T11:18:19;23.30;99.90
31639;DHT22;18248;51.522;7.020;2023-07-30T11:21:21;23.30;99.90
31639;DHT22;18248;51.522;7.020;2023-07-30T11:24:20;23.40;99.90
31639;DHT22;18248;51.522;7.020;2023-07-30T11:27:19;23.40;99.90
31639;DHT22;18248;51.522;7.020;2023-07-30T11:30:19;23.40;99.90
31639;DHT22;18248;51.522;7.020;2023-07-30T11:33:17;23.20;99.90
31639;DHT22;18248;51.522;7.020;2023-07-30T11:36:19;23.10;99.90
31639;DHT22;18248;51.522;7.020;2023-07-30T11:39:18;23.00;99.90
31639;DHT22;18248;51.522;7.020;2023-07-30T11:42:17;22.80;99.90
31639;DHT22;18248;51.522;7.020;2023-07-30T11:45:22;22.90;99.90
31639;DHT22;18248;51.522;7.020;2023-07-30T11:48:24;23.00;99.90
31639;DHT22;18248;51.522;7.020;2023-07-30T11:51:28;23.00;99.90
31639;DHT22;18248;51.522;7.020;2023-07-30T11:54:27;23.00;99.90
31639;DHT22;18248;51.522;7.020;2023-07-30T11:57:33;22.90;99.90
31639;DHT22;18248;51.522;7.020;2023-07-30T12:00:36;23.10;99.90
31639;DHT22;18248;51.522;7.020;2023-07-30T12:03:37;23.40;99.90
31639;DHT22;18248;51.522;7.020;2023-07-30T12:06:41;23.70;99.90
31639;DHT22;18248;51.522;7.020;2023-07-30T12:09:40;24.00;99.90
31639;DHT22;18248;51.522;7.020;2023-07-30T12:12:51;24.10;99.90
31639;DHT22;18248;51.522;7.020;2023-07-30T12:15:55;24.30;99.90
31639;DHT22;18248;51.522;7.020;2023-07-30T12:18:53;24.10;99.90
31639;DHT22;18248;51.522;7.020;2023-07-30T12:21:52;24.00;99.90
31639;DHT22;18248;51.522;7.020;2023-07-30T12:24:51;24.00;99.90
31639;DHT22;18248;51.522;7.020;2023-07-30T12:27:49;24.30;99.90
31639;DHT22;18248;51.522;7.020;2023-07-30T12:30:48;24.40;99.90
31639;DHT22;18248;51.522;7.020;2023-07-30T12:33:46;24.40;99.90
31639;DHT22;18248;51.522;7.020;2023-07-30T12:36:45;24.50;99.90
31639;DHT22;18248;51.522;7.020;2023-07-30T12:39:44;24.60;99.90
31639;DHT22;18248;51.522;7.020;2023-07-30T12:42:42;24.80;99.90
31639;DHT22;18248;51.522;7.020;2023-07-30T12:45:41;24.90;99.90
31639;DHT22;18248;51.522;7.020;2023-07-30T12:48:39;24.90;99.90
31639;DHT22;18248;51.522;7.020;2023-07-30T12:51:38;24.80;99.90
31639;DHT22;18248;51.522;7.020;2023-07-30T12:54:37;24.80;99.90
31639;DHT22;18248;51.522;7.020;2023-07-30T12:57:36;24.80;99.90
31639;DHT22;18248;51.522;7.020;2023-07-30T13:00:34;24.70;99.90
31639;DHT22;18248;51.522;7.020;2023-07-30T13:03:33;24.40;99.90
31639;DHT22;18248;51.522;7.020;2023-07-30T13:06:31;24.20;99.90
31639;DHT22;18248;51.522;7.020;2023-07-30T13:09:30;24.10;99.90
31639;DHT22;18248;51.522;7.020;2023-07-30T13:12:29;23.90;99.90
31639;DHT22;18248;51.522;7.020;2023-07-30T13:15:27;23.70;99.90
31639;DHT22;18248;51.522;7.020;2023-07-30T13:18:28;23.50;99.90
31639;DHT22;18248;51.522;7.020;2023-07-30T13:21:26;23.40;99.90
31639;DHT22;18248;51.522;7.020;2023-07-30T13:24:25;23.30;99.90
31639;DHT22;18248;51.522;7.020;2023-07-30T13:27:23;23.30;99.90
31639;DHT22;18248;51.522;7.020;2023-07-30T13:30:22;23.30;99.90
31639;DHT22;18248;51.522;7.020;2023-07-30T13:33:20;23.20;99.90
31639;DHT22;18248;51.522;7.020;2023-07-30T13:36:19;23.30;99.90
31639;DHT22;18248;51.522;7.020;2023-07-30T13:39:17;23.30;99.90
31639;DHT22;18248;51.522;7.020;2023-07-30T13:42:16;23.20;99.90
31639;DHT22;18248;51.522;7.020;2023-07-30T13:45:15;23.30;99.90
31639;DHT22;18248;51.522;7.020;2023-07-30T13:48:14;23.30;99.90
31639;DHT22;18248;51.522;7.020;2023-07-30T13:51:13;23.30;99.90
31639;DHT22;18248;51.522;7.020;2023-07-30T13:54:12;23.30;99.90
31639;DHT22;18248;51.522;7.020;2023-07-30T13:57:10;23.20;99.90
31639;DHT22;18248;51.522;7.020;2023-07-30T14:00:10;23.60;99.90
31639;DHT22;18248;51.522;7.020;2023-07-30T14:03:08;23.70;99.90
31639;DHT22;18248;51.522;7.020;2023-07-30T14:06:07;23.80;99.90
31639;DHT22;18248;51.522;7.020;2023-07-30T14:09:06;23.80;99.90
31639;DHT22;18248;51.522;7.020;2023-07-30T14:12:05;23.80;99.90
31639;DHT22;18248;51.522;7.020;2023-07-30T14:15:04;23.60;99.90
31639;DHT22;18248;51.522;7.020;2023-07-30T14:18:03;23.50;99.90
31639;DHT22;18248;51.522;7.020;2023-07-30T14:21:02;23.40;99.90
31639;DHT22;18248;51.522;7.020;2023-07-30T14:24:01;23.20;99.90
31639;DHT22;18248;51.522;7.020;2023-07-30T14:26:59;23.00;99.90
31639;DHT22;18248;51.522;7.020;2023-07-30T14:29:58;22.90;99.90
31639;DHT22;18248;51.522;7.020;2023-07-30T14:32:56;22.60;99.90
31639;DHT22;18248;51.522;7.020;2023-07-30T14:35:55;22.50;99.90
31639;DHT22;18248;51.522;7.020;2023-07-30T14:38:53;22.40;99.90
31639;DHT22;18248;51.522;7.020;2023-07-30T14:41:52;22.20;99.90
31639;DHT22;18248;51.522;7.020;2023-07-30T14:44:50;22.30;99.90
31639;DHT22;18248;51.522;7.020;2023-07-30T14:47:49;22.40;99.90
31639;DHT22;18248;51.522;7.020;2023-07-30T14:50:48;22.70;99.90
31639;DHT22;18248;51.522;7.020;2023-07-30T14:53:46;22.90;99.90
31639;DHT22;18248;51.522;7.020;2023-07-30T14:56:45;22.90;99.90
31639;DHT22;18248;51.522;7.020;2023-07-30T14:59:43;22.80;99.90
31639;DHT22;18248;51.522;7.020;2023-07-30T15:02:43;22.60;99.90
31639;DHT22;18248;51.522;7.020;2023-07-30T15:05:42;22.60;99.90
31639;DHT22;18248;51.522;7.020;2023-07-30T15:08:41;22.50;99.90
31639;DHT22;18248;51.522;7.020;2023-07-30T15:11:39;22.40;99.90
31639;DHT22;18248;51.522;7.020;2023-07-30T15:14:38;22.30;99.90
31639;DHT22;18248;51.522;7.020;2023-07-30T15:17:37;22.30;99.90
31639;DHT22;18248;51.522;7.020;2023-07-30T15:20:35;22.40;99.90
31639;DHT22;18248;51.522;7.020;2023-07-30T15:23:34;22.50;99.90
31639;DHT22;18248;51.522;7.020;2023-07-30T15:26:32;22.80;99.90
31639;DHT22;18248;51.522;7.020;2023-07-30T15:29:31;23.20;99.90
31639;DHT22;18248;51.522;7.020;2023-07-30T15:32:29;23.40;99.90
31639;DHT22;18248;51.522;7.020;2023-07-30T15:35:29;23.30;99.90
31639;DHT22;18248;51.522;7.020;2023-07-30T15:38:27;23.30;99.90
31639;DHT22;18248;51.522;7.020;2023-07-30T15:41:26;23.20;99.90
31639;DHT22;18248;51.522;7.020;2023-07-30T15:44:25;23.20;99.90
31639;DHT22;18248;51.522;7.020;2023-07-30T15:47:23;23.20;99.90
31639;DHT22;18248;51.522;7.020;2023-07-30T15:50:22;23.10;99.90
31639;DHT22;18248;51.522;7.020;2023-07-30T15:53:22;23.20;99.90
31639;DHT22;18248;51.522;7.020;2023-07-30T15:56:21;23.10;99.90
31639;DHT22;18248;51.522;7.020;2023-07-30T15:59:19;23.00;99.90
31639;DHT22;18248;51.522;7.020;2023-07-30T16:02:18;23.10;99.90
31639;DHT22;18248;51.522;7.020;2023-07-30T16:05:17;23.10;99.90
31639;DHT22;18248;51.522;7.020;2023-07-30T16:08:16;23.20;99.90
31639;DHT22;18248;51.522;7.020;2023-07-30T16:11:14;23.20;99.90
31639;DHT22;18248;51.522;7.020;2023-07-30T16:14:13;23.20;99.90
31639;DHT22;18248;51.522;7.020;2023-07-30T16:17:12;23.20;99.90
31639;DHT22;18248;51.522;7.020;2023-07-30T16:20:12;23.30;99.90
31639;DHT22;18248;51.522;7.020;2023-07-30T16:23:11;23.30;99.90
31639;DHT22;18248;51.522;7.020;2023-07-30T16:26:09;23.30;99.90
31639;DHT22;18248;51.522;7.020;2023-07-30T16:29:08;23.40;99.90
31639;DHT22;18248;51.522;7.020;2023-07-30T16:32:07;23.40;99.90
31639;DHT22;18248;51.522;7.020;2023-07-30T16:35:05;23.40;99.90
31639;DHT22;18248;51.522;7.020;2023-07-30T16:38:04;23.50;99.90
31639;DHT22;18248;51.522;7.020;2023-07-30T16:41:03;23.50;99.90
31639;DHT22;18248;51.522;7.020;2023-07-30T16:44:02;23.60;99.90
31639;DHT22;18248;51.522;7.020;2023-07-30T16:47:01;23.60;99.90
31639;DHT22;18248;51.522;7.020;2023-07-30T16:50:00;23.60;99.90
31639;DHT22;18248;51.522;7.020;2023-07-30T16:52:58;23.50;99.90
31639;DHT22;18248;51.522;7.020;2023-07-30T16:55:57;23.40;99.90
31639;DHT22;18248;51.522;7.020;2023-07-30T16:58:55;23.30;99.90
31639;DHT22;18248;51.522;7.020;2023-07-30T17:01:54;23.30;99.90
31639;DHT22;18248;51.522;7.020;2023-07-30T17:04:53;23.30;99.90
31639;DHT22;18248;51.522;7.020;2023-07-30T17:07:51;23.30;99.90
31639;DHT22;18248;51.522;7.020;2023-07-30T17:10:50;23.30;99.90
31639;DHT22;18248;51.522;7.020;2023-07-30T17:13:51;23.20;99.90
31639;DHT22;18248;51.522;7.020;2023-07-30T17:16:49;23.20;99.90
31639;DHT22;18248;51.522;7.020;2023-07-30T17:19:48;23.10;99.90
31639;DHT22;18248;51.522;7.020;2023-07-30T17:22:46;23.00;99.90
31639;DHT22;18248;51.522;7.020;2023-07-30T17:25:53;23.00;99.90
31639;DHT22;18248;51.522;7.020;2023-07-30T17:28:52;23.00;99.90
31639;DHT22;18248;51.522;7.020;2023-07-30T17:31:51;23.00;99.90
31639;DHT22;18248;51.522;7.020;2023-07-30T17:34:51;22.90;99.90
31639;DHT22;18248;51.522;7.020;2023-07-30T17:37:49;22.90;99.90
31639;DHT22;18248;51.522;7.020;2023-07-30T17:40:52;22.90;99.90
31639;DHT22;18248;51.522;7.020;2023-07-30T17:43:51;22.90;99.90
31639;DHT22;18248;51.522;7.020;2023-07-30T17:46:49;22.90;99.90
31639;DHT22;18248;51.522;7.020;2023-07-30T17:49:49;22.90;99.90
31639;DHT22;18248;51.522;7.020;2023-07-30T17:52:50;22.80;99.90
31639;DHT22;18248;51.522;7.020;2023-07-30T17:55:49;22.80;99.90
31639;DHT22;18248;51.522;7.020;2023-07-30T17:58:49;22.70;99.90
31639;DHT22;18248;51.522;7.020;2023-07-30T18:01:47;22.60;99.90
31639;DHT22;18248;51.522;7.020;2023-07-30T18:04:46;22.60;99.90
31639;DHT22;18248;51.522;7.020;2023-07-30T18:07:44;22.40;99.90
31639;DHT22;18248;51.522;7.020;2023-07-30T18:10:46;22.30;99.90
31639;DHT22;18248;51.522;7.020;2023-07-30T18:13:50;22.30;99.90
31639;DHT22;18248;51.522;7.020;2023-07-30T18:16:48;22.20;99.90
31639;DHT22;18248;51.522;7.020;2023-07-30T18:19:47;22.10;99.90
31639;DHT22;18248;51.522;7.020;2023-07-30T18:22:45;22.00;99.90
31639;DHT22;18248;51.522;7.020;2023-07-30T18:25:44;21.90;99.90
31639;DHT22;18248;51.522;7.020;2023-07-30T18:28:43;21.70;99.90
31639;DHT22;18248;51.522;7.020;2023-07-30T18:31:43;21.50;99.90
31639;DHT22;18248;51.522;7.020;2023-07-30T18:34:42;21.30;99.90
31639;DHT22;18248;51.522;7.020;2023-07-30T18:37:41;21.10;99.90
31639;DHT22;18248;51.522;7.020;2023-07-30T18:40:40;20.90;99.90
31639;DHT22;18248;51.522;7.020;2023-07-30T18:43:38;20.70;99.90
31639;DHT22;18248;51.522;7.020;2023-07-30T18:46:37;20.40;99.90
31639;DHT22;18248;51.522;7.020;2023-07-30T18:49:35;20.30;99.90
31639;DHT22;18248;51.522;7.020;2023-07-30T18:52:36;20.00;99.90